createdAt,value
2023-01-26T00:00:01.698Z,-0.7
2023-01-26T00:15:02.389Z,-0.67
2023-01-26T00:30:02.149Z,-0.65
2023-01-26T00:45:01.844Z,-0.64
2023-01-26T01:00:02.495Z,-0.65
2023-01-26T01:15:02.133Z,-0.68
2023-01-26T01:30:01.866Z,-0.63
2023-01-26T01:45:02.548Z,-0.63
2023-01-26T02:00:02.247Z,-0.65
2023-01-26T02:15:01.874Z,-0.65
2023-01-26T02:30:02.564Z,-0.64
2023-01-26T02:45:02.252Z,-0.63
2023-01-26T03:00:01.945Z,-0.64
2023-01-26T03:15:01.681Z,-0.6
2023-01-26T03:30:02.344Z,-0.59
2023-01-26T03:45:01.966Z,-0.59
2023-01-26T04:00:01.684Z,-0.61
2023-01-26T04:15:02.333Z,-0.58
2023-01-26T04:30:02.077Z,-0.55
2023-01-26T04:45:01.700Z,-0.51
2023-01-26T05:00:02.342Z,-0.48
2023-01-26T05:15:01.990Z,-0.43
2023-01-26T05:30:02.249Z,-0.39
2023-01-26T05:45:01.875Z,-0.36
2023-01-26T06:00:02.566Z,-0.34
2023-01-26T06:15:02.241Z,-0.31
2023-01-26T06:30:01.882Z,-0.3
2023-01-26T06:45:02.541Z,-0.16
2023-01-26T07:00:02.266Z,-0.07
2023-01-26T07:15:02.060Z,0
2023-01-26T07:30:01.774Z,0.09
2023-01-26T07:45:02.436Z,0.15
2023-01-26T08:00:02.153Z,0.22
2023-01-26T08:15:01.817Z,0.27
2023-01-26T08:30:02.558Z,0.36
2023-01-26T08:45:02.204Z,0.43
2023-01-26T09:00:01.871Z,0.51
2023-01-26T09:15:01.754Z,0.63
2023-01-26T09:30:02.577Z,0.74
2023-01-26T09:45:02.266Z,0.81
2023-01-26T10:00:01.979Z,0.9
2023-01-26T10:15:01.617Z,0.98
2023-01-26T10:30:02.382Z,1.04
2023-01-26T10:45:02.323Z,1.13
2023-01-26T11:00:02.034Z,1.2
2023-01-26T11:15:01.927Z,1.3
2023-01-26T11:30:01.719Z,1.39
2023-01-26T11:45:02.398Z,1.45
2023-01-26T12:30:02.145Z,1.67
2023-01-26T12:45:01.878Z,1.66
2023-01-26T13:00:01.705Z,1.75
2023-01-26T13:15:03.089Z,1.83
2023-01-26T13:30:02.187Z,2.2
2023-01-26T13:45:01.846Z,2.36
2023-01-26T14:00:02.489Z,2.45
2023-01-26T14:15:02.196Z,2.6
2023-01-26T14:30:01.881Z,2.62
2023-01-26T14:45:02.514Z,2.73
2023-01-26T15:00:02.135Z,2.86
2023-01-26T15:15:02.912Z,2.94
2023-01-26T15:30:01.718Z,2.98
2023-01-26T15:45:02.393Z,3.04
2023-01-26T16:00:02.016Z,3.06
2023-01-26T16:15:01.699Z,3.08
2023-01-26T16:30:02.462Z,3.11
2023-01-26T16:45:02.114Z,3.13
2023-01-26T17:00:01.751Z,3.15
2023-01-26T17:15:02.364Z,3.15
2023-01-26T17:30:01.996Z,3.11
2023-01-26T17:45:01.625Z,3.09
2023-01-26T18:00:02.283Z,3.12
2023-01-26T18:15:01.985Z,3.13
2023-01-26T18:30:01.719Z,3.13
2023-01-26T18:45:02.392Z,3.09
2023-01-26T19:00:01.987Z,3.34
2023-01-26T19:15:01.676Z,3.56
2023-01-26T20:00:02.335Z,3.94
2023-01-26T20:15:02.004Z,3.98
2023-01-26T20:30:01.771Z,4
2023-01-26T20:45:02.427Z,4.06
2023-01-26T21:00:02.049Z,4.08
2023-01-26T21:15:01.718Z,4.24
2023-01-26T21:30:02.457Z,4.13
2023-01-26T21:45:02.138Z,4.24
2023-01-26T22:00:01.780Z,4.28
2023-01-26T22:15:02.447Z,4.2
2023-01-26T22:30:02.135Z,4.17
2023-01-26T22:45:01.838Z,4.1
2023-01-26T23:00:02.588Z,4.09
2023-01-26T23:15:02.228Z,4.11
2023-01-26T23:30:03.325Z,3.89
2023-01-26T23:45:02.274Z,4.02
